You are listening to:
KOSH Fisk VFR Approach #4 - Oshkosh, Wisconsin, United States

KOSH 231053Z AUTO VRB06KT 10SM CLR 12/04 A2962 RMK AO2 SLP026 T01170039 $

If stream doesn't start automatically press the play button
If stream stops then reload player then press play